Time;durP1;ratioP1;P1;durP2;ratioP2;P2;SDS_P1;SDS_P2;PMS_P1;PMS_P2;Temp;Humidity;BMP_temperature;BMP_pressure;BME280_temperature;BME280_humidity;BME280_pressure;Samples;Min_cycle;Max_cycle;Signal;HPM_P1;HPM_P2
2022/08/08 00:00:54;;;;;;;9.10;8.13;;;;;;;;;;10057711;28;20111;-62
2022/08/08 00:06:12;;;;;;;8.93;8.13;;;;;;;;;;10055583;28;20049;-60
2022/08/08 00:11:17;;;;;;;8.95;8.23;;;;;;;;;;10053183;28;20120;-60
2022/08/08 00:16:18;;;;;;;8.30;7.60;;;;;;;;;;10062496;28;20041;-61
2022/08/08 00:21:20;;;;;;;8.43;7.65;;;;;;;;;;10048578;28;20072;-61
2022/08/08 00:26:30;;;;;;;9.65;8.75;;;;;;;;;;10049142;28;20049;-61
2022/08/08 00:31:30;;;;;;;9.80;8.88;;;;;;;;;;10041202;28;20100;-61
2022/08/08 00:36:45;;;;;;;;;;;;;;;;;;10046305;28;20556;-63
2022/08/08 00:42:11;;;;;;;9.23;8.43;;;;;;;;;;10034950;28;19983;-63
2022/08/08 00:47:33;;;;;;;8.68;7.97;;;;;;;;;;10039309;28;20078;-63
2022/08/08 00:53:08;;;;;;;9.25;8.50;;;;;;;;;;10044717;28;20128;-63
2022/08/08 00:58:20;;;;;;;8.27;7.57;;;;;;;;;;10055002;28;20049;-63
2022/08/08 01:03:40;;;;;;;8.13;7.35;;;;;;;;;;10051550;28;20052;-63
2022/08/08 01:08:58;;;;;;;8.55;7.65;;;;;;;;;;10057008;28;20171;-63
2022/08/08 01:14:46;;;;;;;10.73;7.22;;;;;;;;;;10045839;28;20485;-64
2022/08/08 01:19:48;;;;;;;7.10;6.50;;;;;;;;;;10053622;28;20685;-63
2022/08/08 01:25:11;;;;;;;7.10;6.40;;;;;;;;;;10064218;28;20144;-63
2022/08/08 01:30:09;;;;;;;6.78;6.10;;;;;;;;;;10064939;28;20050;-63
2022/08/08 01:35:24;;;;;;;6.25;5.65;;;;;;;;;;10066746;28;20516;-63
2022/08/08 01:40:35;;;;;;;6.40;5.80;;;;;;;;;;10063570;28;20466;-64
2022/08/08 01:45:46;;;;;;;6.50;5.70;;;;;;;;;;10063277;28;20045;-64
2022/08/08 01:51:23;;;;;;;7.80;6.13;;;;;;;;;;10059180;28;20429;-64
2022/08/08 01:57:04;;;;;;;11.30;5.95;;;;;;;;;;10054508;28;20068;-64
2022/08/08 02:02:35;;;;;;;6.15;5.65;;;;;;;;;;10070835;28;20078;-64
2022/08/08 02:07:34;;;;;;;7.53;6.93;;;;;;;;;;10059831;28;20120;-62
2022/08/08 02:13:16;;;;;;;11.10;10.00;;;;;;;;;;10078197;28;20140;-62
2022/08/08 02:18:33;;;;;;;9.60;8.80;;;;;;;;;;10041258;28;20049;-62
2022/08/08 02:24:09;;;;;;;8.80;7.88;;;;;;;;;;10061006;28;20069;-62
2022/08/08 02:29:24;;;;;;;;;;;;;;;;;;10057392;28;20414;-62
2022/08/08 02:34:42;;;;;;;7.95;7.15;;;;;;;;;;10051065;28;19921;-62
2022/08/08 02:40:19;;;;;;;9.85;9.05;;;;;;;;;;10077374;28;20045;-62
2022/08/08 02:46:07;;;;;;;9.48;8.75;;;;;;;;;;10073134;28;20064;-62
2022/08/08 02:51:12;;;;;;;13.95;9.38;;;;;;;;;;10052650;28;20096;-62
2022/08/08 02:56:39;;;;;;;11.10;9.68;;;;;;;;;;10064507;28;20061;-62
2022/08/08 03:02:02;;;;;;;9.68;7.15;;;;;;;;;;10065021;28;20132;-62
2022/08/08 03:07:23;;;;;;;10.05;7.75;;;;;;;;;;10056365;28;20518;-62
2022/08/08 03:13:04;;;;;;;7.93;7.13;;;;;;;;;;10074068;28;20057;-62
2022/08/08 03:18:27;;;;;;;10.35;7.15;;;;;;;;;;10061038;28;20050;-62
2022/08/08 03:23:26;;;;;;;7.72;7.13;;;;;;;;;;10058293;28;20099;-62
2022/08/08 03:28:44;;;;;;;7.72;7.13;;;;;;;;;;10059988;28;20050;-62
2022/08/08 03:33:45;;;;;;;6.53;6.03;;;;;;;;;;10059581;28;20050;-62
2022/08/08 03:38:56;;;;;;;7.13;6.07;;;;;;;;;;10075078;28;20512;-62
2022/08/08 03:44:10;;;;;;;8.90;6.68;;;;;;;;;;10065029;28;20045;-63
2022/08/08 03:49:17;;;;;;;7.90;7.30;;;;;;;;;;10066251;28;20132;-62
2022/08/08 03:54:31;;;;;;;7.28;6.57;;;;;;;;;;10062074;28;20058;-62
2022/08/08 03:59:44;;;;;;;7.65;7.00;;;;;;;;;;10053308;28;20053;-62
2022/08/08 04:05:04;;;;;;;;;;;;;;;;;;10057382;28;20497;-62
2022/08/08 04:10:05;;;;;;;8.05;7.30;;;;;;;;;;10055793;28;20307;-63
2022/08/08 04:15:03;;;;;;;7.78;7.07;;;;;;;;;;10051697;28;20105;-62
2022/08/08 04:19:57;;;;;;;9.45;8.07;;;;;;;;;;10060152;28;20072;-63
2022/08/08 04:24:56;;;;;;;;;;;;;;;;;;10057958;28;20045;-62
2022/08/08 04:29:50;;;;;;;8.05;7.35;;;;;;;;;;10060162;28;19935;-62
2022/08/08 04:34:57;;;;;;;8.05;7.35;;;;;;;;;;10052021;28;20528;-62
2022/08/08 04:39:57;;;;;;;8.77;7.88;;;;;;;;;;10042687;28;20096;-62
2022/08/08 04:45:06;;;;;;;7.57;6.88;;;;;;;;;;10055448;28;20046;-62
2022/08/08 04:50:00;;;;;;;8.57;7.30;;;;;;;;;;10054019;28;20065;-62
2022/08/08 04:55:02;;;;;;;8.55;7.75;;;;;;;;;;10050610;28;20064;-62
2022/08/08 04:59:58;;;;;;;9.85;7.50;;;;;;;;;;10060178;28;20414;-62
2022/08/08 05:04:54;;;;;;;9.07;8.18;;;;;;;;;;10053697;28;20124;-63
2022/08/08 05:09:53;;;;;;;10.18;8.07;;;;;;;;;;10061419;28;20053;-62
2022/08/08 05:14:48;;;;;;;9.98;8.32;;;;;;;;;;10058745;28;20050;-63
2022/08/08 05:19:45;;;;;;;8.43;7.65;;;;;;;;;;10050318;28;20402;-63
2022/08/08 05:25:03;;;;;;;6.07;5.28;;;;;;;;;;10059928;28;20084;-62
2022/08/08 05:29:58;;;;;;;9.38;5.47;;;;;;;;;;10059560;28;20461;-62
2022/08/08 05:34:59;;;;;;;6.32;5.75;;;;;;;;;;10061847;28;20502;-62
2022/08/08 05:40:03;;;;;;;6.90;5.90;;;;;;;;;;10068428;28;20049;-63
2022/08/08 05:45:01;;;;;;;7.75;6.97;;;;;;;;;;10074338;28;20046;-59
2022/08/08 05:50:17;;;;;;;8.02;7.22;;;;;;;;;;10062545;28;20061;-60
2022/08/08 05:55:12;;;;;;;9.65;8.85;;;;;;;;;;10065019;28;20072;-60
2022/08/08 06:00:11;;;;;;;8.20;7.50;;;;;;;;;;10065307;28;20477;-60
2022/08/08 06:05:21;;;;;;;14.60;7.05;;;;;;;;;;10057258;28;20073;-60
2022/08/08 06:10:34;;;;;;;4.97;4.47;;;;;;;;;;10051348;28;20100;-60
2022/08/08 06:15:32;;;;;;;7.22;4.28;;;;;;;;;;10048532;28;20104;-60
2022/08/08 06:21:11;;;;;;;6.57;5.43;;;;;;;;;;10069537;28;20047;-59
2022/08/08 06:26:31;;;;;;;9.15;4.82;;;;;;;;;;10046585;28;20056;-60
2022/08/08 06:31:39;;;;;;;7.90;5.70;;;;;;;;;;10048720;28;20052;-59
2022/08/08 06:36:55;;;;;;;5.65;4.95;;;;;;;;;;10057853;28;20048;-59
2022/08/08 06:42:01;;;;;;;5.95;5.35;;;;;;;;;;10037027;28;20530;-59
2022/08/08 06:47:05;;;;;;;6.32;5.35;;;;;;;;;;10050882;28;20041;-60
2022/08/08 06:52:04;;;;;;;10.45;7.53;;;;;;;;;;10039108;28;20049;-60
2022/08/08 06:56:58;;;;;;;10.80;7.38;;;;;;;;;;10053535;28;20117;-58
2022/08/08 07:02:02;;;;;;;10.88;8.38;;;;;;;;;;10055108;28;20045;-59
2022/08/08 07:07:57;;;;;;;8.32;7.47;;;;;;;;;;10060988;28;20037;-61
2022/08/08 07:13:08;;;;;;;8.48;7.53;;;;;;;;;;10058009;28;20046;-61
2022/08/08 07:18:08;;;;;;;6.72;6.13;;;;;;;;;;10051418;28;20421;-63
2022/08/08 07:23:24;;;;;;;7.55;6.85;;;;;;;;;;10054778;28;20476;-62
2022/08/08 07:28:23;;;;;;;6.35;5.85;;;;;;;;;;10050888;28;20450;-60
2022/08/08 07:33:30;;;;;;;7.18;6.03;;;;;;;;;;10046438;28;20049;-60
2022/08/08 07:38:50;;;;;;;6.57;5.95;;;;;;;;;;10064734;28;20052;-61
2022/08/08 07:43:45;;;;;;;8.30;6.75;;;;;;;;;;10048549;28;20045;-61
2022/08/08 07:48:45;;;;;;;7.15;6.07;;;;;;;;;;10038534;28;20085;-60
2022/08/08 07:54:15;;;;;;;6.20;4.85;;;;;;;;;;10043706;28;20061;-60
2022/08/08 07:59:24;;;;;;;7.38;5.95;;;;;;;;;;10037467;28;20102;-60
2022/08/08 08:04:24;;;;;;;5.38;4.95;;;;;;;;;;10055674;28;20597;-60
2022/08/08 08:09:25;;;;;;;6.07;5.55;;;;;;;;;;10035522;28;20049;-61
2022/08/08 08:14:46;;;;;;;7.15;6.40;;;;;;;;;;10030410;28;20153;-61
2022/08/08 08:19:40;;;;;;;10.95;9.65;;;;;;;;;;10060009;28;20077;-60
2022/08/08 08:24:41;;;;;;;10.63;9.73;;;;;;;;;;10045464;28;20045;-61
2022/08/08 08:29:38;;;;;;;8.40;7.50;;;;;;;;;;10050444;28;20111;-60
2022/08/08 08:34:36;;;;;;;9.82;8.23;;;;;;;;;;10046207;28;20057;-60
2022/08/08 08:39:41;;;;;;;7.68;6.78;;;;;;;;;;10038276;28;20136;-61
2022/08/08 08:44:55;;;;;;;11.07;9.05;;;;;;;;;;10045251;28;20053;-59
2022/08/08 08:49:49;;;;;;;10.02;7.07;;;;;;;;;;10049318;28;20077;-60
2022/08/08 08:54:43;;;;;;;11.32;7.35;;;;;;;;;;10050934;28;20061;-61
2022/08/08 08:59:40;;;;;;;9.98;8.60;;;;;;;;;;10041085;28;20042;-63
2022/08/08 09:05:02;;;;;;;8.55;7.60;;;;;;;;;;10047540;28;20068;-61
2022/08/08 09:09:59;;;;;;;9.80;6.93;;;;;;;;;;10047591;28;20056;-62
2022/08/08 09:15:06;;;;;;;8.82;7.07;;;;;;;;;;10047335;28;20054;-61
2022/08/08 09:20:06;;;;;;;10.02;5.18;;;;;;;;;;10042034;28;20071;-62
2022/08/08 09:25:21;;;;;;;7.57;5.83;;;;;;;;;;10037803;28;20045;-62
2022/08/08 09:30:30;;;;;;;6.50;5.88;;;;;;;;;;10042176;28;20580;-61
2022/08/08 09:35:30;;;;;;;9.75;6.72;;;;;;;;;;10074716;28;20046;-62
2022/08/08 09:40:32;;;;;;;5.50;5.00;;;;;;;;;;10055051;28;20577;-62
2022/08/08 09:45:46;;;;;;;18.50;7.35;;;;;;;;;;10063713;28;20409;-61
2022/08/08 09:50:55;;;;;;;7.85;6.25;;;;;;;;;;10060296;28;20054;-62
2022/08/08 09:55:50;;;;;;;5.57;5.07;;;;;;;;;;10063832;28;20445;-61
2022/08/08 10:01:00;;;;;;;7.40;5.40;;;;;;;;;;10055819;28;20058;-61
2022/08/08 10:05:55;;;;;;;6.72;5.70;;;;;;;;;;10052924;28;20056;-61
2022/08/08 10:10:58;;;;;;;6.63;5.35;;;;;;;;;;10053157;28;20056;-62
2022/08/08 10:15:52;;;;;;;7.90;4.82;;;;;;;;;;10052429;28;20068;-62
2022/08/08 10:21:00;;;;;;;8.30;4.47;;;;;;;;;;10061441;28;20391;-62
2022/08/08 10:26:01;;;;;;;5.78;5.18;;;;;;;;;;10062549;28;20079;-62
2022/08/08 10:30:58;;;;;;;4.45;3.92;;;;;;;;;;10060765;28;20065;-62
2022/08/08 10:36:03;;;;;;;5.05;4.50;;;;;;;;;;10054314;28;20144;-62
2022/08/08 10:41:16;;;;;;;5.35;4.55;;;;;;;;;;10045994;28;20053;-62
2022/08/08 10:46:24;;;;;;;7.97;4.38;;;;;;;;;;10052564;28;20115;-65
2022/08/08 10:51:27;;;;;;;7.07;5.07;;;;;;;;;;10054998;28;20052;-65
2022/08/08 10:56:34;;;;;;;5.55;3.60;;;;;;;;;;10056489;28;20515;-64
2022/08/08 11:01:36;;;;;;;4.90;4.40;;;;;;;;;;10061704;28;20080;-64
2022/08/08 11:06:32;;;;;;;4.43;3.97;;;;;;;;;;10057178;28;20045;-59
2022/08/08 11:11:26;;;;;;;7.10;4.07;;;;;;;;;;10039361;28;20517;-57
2022/08/08 11:16:41;;;;;;;8.45;3.13;;;;;;;;;;10052425;28;20037;-56
2022/08/08 11:21:40;;;;;;;5.25;2.85;;;;;;;;;;10060825;28;20124;-57
2022/08/08 11:26:46;;;;;;;5.80;3.80;;;;;;;;;;10046417;28;20049;-57
2022/08/08 11:31:50;;;;;;;5.13;3.50;;;;;;;;;;10057838;28;20053;-57
2022/08/08 11:36:43;;;;;;;3.70;2.63;;;;;;;;;;10051272;28;20049;-57
2022/08/08 11:41:44;;;;;;;2.40;2.20;;;;;;;;;;10048108;28;20141;-57
2022/08/08 11:46:37;;;;;;;5.13;2.35;;;;;;;;;;10052036;28;20498;-57
2022/08/08 11:51:31;;;;;;;3.85;2.10;;;;;;;;;;10053158;28;20529;-57
2022/08/08 11:56:41;;;;;;;5.55;2.50;;;;;;;;;;10054301;28;20449;-57
2022/08/08 12:01:48;;;;;;;4.22;2.28;;;;;;;;;;10059148;28;20057;-57
2022/08/08 12:06:42;;;;;;;2.53;2.10;;;;;;;;;;10056123;28;20050;-57
2022/08/08 12:11:40;;;;;;;5.25;2.85;;;;;;;;;;10057505;28;20514;-57
2022/08/08 12:16:47;;;;;;;3.25;2.65;;;;;;;;;;10050199;28;20053;-58
2022/08/08 12:21:45;;;;;;;6.05;2.67;;;;;;;;;;10053447;28;20108;-58
2022/08/08 12:26:58;;;;;;;2.88;2.47;;;;;;;;;;10050503;28;20103;-57
2022/08/08 12:32:10;;;;;;;3.25;2.95;;;;;;;;;;10052875;28;20053;-57
2022/08/08 12:37:18;;;;;;;3.75;2.83;;;;;;;;;;10050422;28;20557;-57
2022/08/08 12:42:12;;;;;;;6.10;2.65;;;;;;;;;;10045752;28;20056;-57
2022/08/08 12:47:16;;;;;;;6.85;2.40;;;;;;;;;;10047626;28;20560;-58
2022/08/08 12:52:08;;;;;;;;;;;;;;;;;;10044722;28;20054;-58
2022/08/08 12:57:16;;;;;;;5.15;2.83;;;;;;;;;;10052658;28;20369;-57
2022/08/08 13:02:32;;;;;;;2.60;2.40;;;;;;;;;;10057172;28;20053;-58
2022/08/08 13:07:34;;;;;;;6.00;3.25;;;;;;;;;;10056070;28;20060;-58
2022/08/08 13:12:51;;;;;;;4.07;2.55;;;;;;;;;;10058180;28;20070;-58
2022/08/08 13:17:45;;;;;;;3.75;2.63;;;;;;;;;;10060370;28;20057;-59
2022/08/08 13:22:58;;;;;;;4.10;2.92;;;;;;;;;;10066039;28;20081;-57
2022/08/08 13:28:11;;;;;;;5.88;2.65;;;;;;;;;;10041911;28;20045;-58
2022/08/08 13:33:09;;;;;;;3.40;2.70;;;;;;;;;;10043826;28;20425;-58
2022/08/08 13:38:09;;;;;;;4.60;2.63;;;;;;;;;;10070431;28;20073;-58
2022/08/08 13:43:06;;;;;;;2.92;2.67;;;;;;;;;;10059325;28;20057;-57
2022/08/08 13:48:01;;;;;;;2.40;2.20;;;;;;;;;;10069566;28;20061;-57
2022/08/08 13:52:56;;;;;;;3.08;2.70;;;;;;;;;;10057217;28;20072;-58
2022/08/08 13:57:50;;;;;;;3.17;2.88;;;;;;;;;;10060334;28;20568;-57
2022/08/08 14:03:03;;;;;;;4.10;2.92;;;;;;;;;;10059881;28;20565;-58
2022/08/08 14:08:17;;;;;;;5.97;2.60;;;;;;;;;;10054350;28;20103;-59
2022/08/08 14:13:24;;;;;;;5.22;2.83;;;;;;;;;;10059084;28;20050;-59
2022/08/08 14:18:26;;;;;;;2.67;2.47;;;;;;;;;;10066282;28;20041;-58
2022/08/08 14:23:42;;;;;;;6.05;2.70;;;;;;;;;;10064827;28;20129;-57
2022/08/08 14:28:57;;;;;;;3.15;2.58;;;;;;;;;;10054405;28;20449;-58
2022/08/08 14:33:56;;;;;;;3.42;2.40;;;;;;;;;;10065670;28;20048;-56
2022/08/08 14:38:50;;;;;;;2.85;2.65;;;;;;;;;;10059867;28;20053;-57
2022/08/08 14:43:55;;;;;;;2.97;2.60;;;;;;;;;;10066009;28;20075;-58
2022/08/08 14:49:11;;;;;;;4.60;2.80;;;;;;;;;;10067781;28;20513;-60
2022/08/08 14:54:24;;;;;;;5.13;2.50;;;;;;;;;;10065809;28;20433;-59
2022/08/08 14:59:22;;;;;;;4.50;2.67;;;;;;;;;;10067914;28;20037;-58
2022/08/08 15:04:35;;;;;;;2.50;2.30;;;;;;;;;;10059995;28;20079;-60
2022/08/08 15:09:30;;;;;;;3.58;2.75;;;;;;;;;;10062978;28;20061;-58
2022/08/08 15:14:24;;;;;;;6.22;2.85;;;;;;;;;;10068832;28;20050;-58
2022/08/08 15:19:19;;;;;;;3.53;2.90;;;;;;;;;;10068170;28;20559;-58
2022/08/08 15:24:16;;;;;;;3.15;2.95;;;;;;;;;;10068797;28;20049;-58
2022/08/08 15:29:10;;;;;;;5.35;2.65;;;;;;;;;;10068074;28;20041;-57
2022/08/08 15:34:04;;;;;;;3.30;3.00;;;;;;;;;;10066423;28;20095;-57
2022/08/08 15:39:01;;;;;;;3.83;2.95;;;;;;;;;;10067766;28;20053;-58
2022/08/08 15:43:55;;;;;;;3.58;2.60;;;;;;;;;;10067293;28;20064;-58
2022/08/08 15:48:54;;;;;;;4.13;2.90;;;;;;;;;;10066400;28;20049;-60
2022/08/08 15:53:48;;;;;;;10.45;2.90;;;;;;;;;;10066599;28;20144;-60
2022/08/08 15:58:42;;;;;;;3.55;2.88;;;;;;;;;;10064942;28;20049;-62
2022/08/08 16:03:41;;;;;;;4.65;3.38;;;;;;;;;;10063755;28;20449;-60
2022/08/08 16:08:38;;;;;;;4.15;3.08;;;;;;;;;;10064289;28;20057;-60
2022/08/08 16:13:54;;;;;;;8.63;3.20;;;;;;;;;;10066419;28;20041;-60
2022/08/08 16:18:47;;;;;;;8.63;3.28;;;;;;;;;;10066727;28;20052;-59
2022/08/08 16:23:50;;;;;;;4.47;3.58;;;;;;;;;;10066249;28;20049;-60
2022/08/08 16:28:48;;;;;;;7.75;3.30;;;;;;;;;;10064585;28;20053;-60
2022/08/08 16:33:42;;;;;;;7.20;3.20;;;;;;;;;;10065844;28;20051;-62
2022/08/08 16:38:51;;;;;;;4.88;3.35;;;;;;;;;;10065777;28;20053;-63
2022/08/08 16:43:49;;;;;;;4.35;3.40;;;;;;;;;;10060021;28;20056;-62
2022/08/08 16:48:45;;;;;;;6.10;3.13;;;;;;;;;;10063866;28;20057;-61
2022/08/08 16:53:41;;;;;;;3.15;2.85;;;;;;;;;;10076218;28;20065;-62
2022/08/08 16:58:56;;;;;;;5.47;3.72;;;;;;;;;;10073349;28;20044;-58
2022/08/08 17:03:50;;;;;;;5.05;3.67;;;;;;;;;;10078272;28;20425;-60
2022/08/08 17:08:55;;;;;;;5.30;3.60;;;;;;;;;;10078623;28;20080;-59
2022/08/08 17:13:50;;;;;;;5.78;2.95;;;;;;;;;;10077976;28;20045;-60
2022/08/08 17:18:53;;;;;;;5.10;3.17;;;;;;;;;;10073027;28;20133;-60
2022/08/08 17:23:48;;;;;;;4.40;2.97;;;;;;;;;;10073841;28;20045;-60
2022/08/08 17:28:54;;;;;;;3.53;3.17;;;;;;;;;;10075465;28;20056;-61
2022/08/08 17:33:48;;;;;;;3.70;3.38;;;;;;;;;;10067614;28;20102;-60
2022/08/08 17:39:02;;;;;;;6.55;3.75;;;;;;;;;;10072169;28;20034;-62
2022/08/08 17:44:16;;;;;;;4.95;4.43;;;;;;;;;;10072224;28;20045;-62
2022/08/08 17:49:12;;;;;;;4.68;4.28;;;;;;;;;;10072230;28;20046;-60
2022/08/08 17:54:08;;;;;;;5.45;3.80;;;;;;;;;;10074552;28;20469;-60
2022/08/08 17:59:14;;;;;;;3.42;3.15;;;;;;;;;;10071969;28;20051;-60
2022/08/08 18:04:08;;;;;;;6.00;3.67;;;;;;;;;;10064751;28;20041;-61
2022/08/08 18:09:12;;;;;;;3.47;3.22;;;;;;;;;;10063243;28;20081;-61
2022/08/08 18:14:08;;;;;;;6.78;4.40;;;;;;;;;;10044142;28;20053;-61
2022/08/08 18:19:34;;;;;;;6.53;4.70;;;;;;;;;;10037971;28;20057;-61
2022/08/08 18:24:38;;;;;;;7.25;4.13;;;;;;;;;;10065686;28;20518;-61
2022/08/08 18:29:35;;;;;;;10.18;4.68;;;;;;;;;;10053563;28;20044;-62
2022/08/08 18:34:28;;;;;;;5.65;4.05;;;;;;;;;;10051096;28;20132;-61
2022/08/08 18:39:25;;;;;;;4.47;4.10;;;;;;;;;;10048458;28;21540;-61
2022/08/08 18:44:20;;;;;;;6.55;4.13;;;;;;;;;;10061093;28;20077;-60
2022/08/08 18:49:20;;;;;;;6.20;4.18;;;;;;;;;;10061465;28;20046;-70
2022/08/08 18:54:17;;;;;;;5.57;4.78;;;;;;;;;;10065535;28;20099;-63
2022/08/08 18:59:21;;;;;;;5.53;4.93;;;;;;;;;;10065422;28;20049;-73
2022/08/08 19:04:16;;;;;;;6.22;4.40;;;;;;;;;;10059692;28;20471;-60
2022/08/08 19:09:11;;;;;;;8.18;4.40;;;;;;;;;;10061183;28;20049;-63
2022/08/08 19:14:07;;;;;;;4.65;4.35;;;;;;;;;;10060393;28;20045;-62
2022/08/08 19:19:04;;;;;;;;;;;;;;;;;;10064163;28;20050;-60
2022/08/08 19:24:06;;;;;;;7.20;4.45;;;;;;;;;;10063727;28;20384;-62
2022/08/08 19:29:19;;;;;;;4.75;4.35;;;;;;;;;;10039881;28;20434;-62
2022/08/08 19:34:14;;;;;;;5.35;4.57;;;;;;;;;;10054588;28;20461;-62
2022/08/08 19:39:28;;;;;;;6.07;4.95;;;;;;;;;;10061747;28;20060;-62
2022/08/08 19:44:28;;;;;;;7.93;5.78;;;;;;;;;;10059026;28;20049;-61
2022/08/08 19:49:38;;;;;;;6.88;5.57;;;;;;;;;;10051382;28;20054;-60
2022/08/08 19:54:35;;;;;;;9.05;5.82;;;;;;;;;;10056704;28;20563;-62
2022/08/08 19:59:29;;;;;;;6.25;5.65;;;;;;;;;;10057560;28;20092;-62
2022/08/08 20:04:26;;;;;;;10.03;5.70;;;;;;;;;;10047405;28;20073;-61
2022/08/08 20:09:21;;;;;;;8.27;5.65;;;;;;;;;;10050233;28;20191;-62
2022/08/08 20:14:15;;;;;;;5.63;4.80;;;;;;;;;;10051874;28;20057;-62
2022/08/08 20:19:28;;;;;;;9.43;5.88;;;;;;;;;;10056544;28;20124;-62
2022/08/08 20:24:28;;;;;;;7.45;6.78;;;;;;;;;;10060973;28;20049;-60
2022/08/08 20:29:22;;;;;;;6.15;5.65;;;;;;;;;;10057320;28;20049;-59
2022/08/08 20:34:36;;;;;;;5.18;4.63;;;;;;;;;;10051499;28;20041;-60
2022/08/08 20:39:40;;;;;;;6.07;5.57;;;;;;;;;;10046613;28;20064;-61
2022/08/08 20:44:43;;;;;;;7.00;5.18;;;;;;;;;;10050591;28;20060;-61
2022/08/08 20:49:38;;;;;;;10.57;6.03;;;;;;;;;;10054962;28;20567;-63
2022/08/08 20:54:38;;;;;;;7.47;6.10;;;;;;;;;;10055725;28;20058;-62
2022/08/08 20:59:36;;;;;;;4.97;4.57;;;;;;;;;;10046991;28;20055;-61
2022/08/08 21:04:34;;;;;;;5.38;4.88;;;;;;;;;;10048215;28;20089;-62
2022/08/08 21:09:29;;;;;;;6.13;5.55;;;;;;;;;;10059962;28;20052;-61
2022/08/08 21:14:41;;;;;;;11.18;5.28;;;;;;;;;;10058533;28;20107;-61
2022/08/08 21:19:40;;;;;;;5.18;4.70;;;;;;;;;;10059832;28;20050;-62
2022/08/08 21:24:41;;;;;;;9.60;4.85;;;;;;;;;;10049590;28;20103;-61
2022/08/08 21:29:46;;;;;;;7.65;5.57;;;;;;;;;;10050847;28;20065;-63
2022/08/08 21:34:59;;;;;;;10.27;5.45;;;;;;;;;;10055867;28;20169;-61
2022/08/08 21:40:13;;;;;;;6.97;5.28;;;;;;;;;;10062769;28;20071;-62
2022/08/08 21:45:14;;;;;;;6.15;5.35;;;;;;;;;;10061541;28;20561;-61
2022/08/08 21:50:27;;;;;;;5.65;5.15;;;;;;;;;;10064175;28;20049;-60
2022/08/08 21:55:23;;;;;;;7.72;4.68;;;;;;;;;;10052560;28;20053;-59
2022/08/08 22:00:37;;;;;;;6.63;4.57;;;;;;;;;;10056371;28;20037;-60
2022/08/08 22:05:33;;;;;;;6.65;4.95;;;;;;;;;;10057588;28;20045;-59
2022/08/08 22:10:34;;;;;;;9.88;4.68;;;;;;;;;;10047439;28;20054;-60
2022/08/08 22:15:29;;;;;;;9.55;5.13;;;;;;;;;;10057922;28;20049;-58
2022/08/08 22:20:27;;;;;;;10.82;4.88;;;;;;;;;;10065023;28;20057;-60
2022/08/08 22:25:21;;;;;;;7.03;6.32;;;;;;;;;;10057431;28;20053;-60
2022/08/08 22:30:18;;;;;;;6.77;4.90;;;;;;;;;;10066862;28;20057;-59
2022/08/08 22:35:23;;;;;;;5.80;5.20;;;;;;;;;;10065388;28;20567;-61
2022/08/08 22:40:36;;;;;;;5.18;4.63;;;;;;;;;;10055604;28;20629;-61
2022/08/08 22:45:30;;;;;;;8.35;4.38;;;;;;;;;;10064075;28;20049;-60
2022/08/08 22:50:26;;;;;;;6.03;5.05;;;;;;;;;;10064236;28;20075;-62
2022/08/08 22:55:21;;;;;;;7.18;4.65;;;;;;;;;;10060870;28;20056;-63
2022/08/08 23:00:15;;;;;;;6.90;5.15;;;;;;;;;;10064559;28;20072;-61
2022/08/08 23:05:09;;;;;;;5.90;5.43;;;;;;;;;;10065670;28;20541;-59
2022/08/08 23:10:08;;;;;;;7.53;5.32;;;;;;;;;;10062458;28;20086;-61
2022/08/08 23:15:07;;;;;;;5.43;4.90;;;;;;;;;;10066092;28;20067;-61
2022/08/08 23:20:21;;;;;;;5.70;5.20;;;;;;;;;;10059046;28;20061;-59
2022/08/08 23:25:18;;;;;;;8.40;5.10;;;;;;;;;;10060483;28;20048;-59
2022/08/08 23:30:14;;;;;;;11.65;5.20;;;;;;;;;;10061280;28;20053;-59
2022/08/08 23:35:09;;;;;;;6.32;5.10;;;;;;;;;;10062662;28;20494;-60
2022/08/08 23:40:09;;;;;;;9.23;5.13;;;;;;;;;;10063865;28;20128;-60
2022/08/08 23:45:05;;;;;;;6.22;5.07;;;;;;;;;;10064369;28;20049;-60
2022/08/08 23:50:05;;;;;;;6.20;5.47;;;;;;;;;;10063825;28;20046;-63
2022/08/08 23:55:09;;;;;;;9.10;5.97;;;;;;;;;;10064745;28;20133;-61
